AirNav   Advertisement
 
 1558 users online  

0IL6 Kishwaukee Hospital Heliport
De Kalb, Illinois, USA

GOING TO DE KALB?


FAA INFORMATION EFFECTIVE 20 JULY 2017

Location

FAA Identifier: 0IL6
Lat/Long: 41-57-38.3600N / 088-43-18.3800W
41-57.639333N / 088-43.306333W
41.9606556 / -88.7217722
(estimated)
Elevation: 860 ft. / 262 m (estimated)
Variation: 03W (2010)
From city: 3 miles NE of DE KALB, IL
Time zone: UTC -5 (UTC -6 during Standard Time)
Zip code: 60115

Heliport Operations

Heliport use: Private use, MEDICAL USE.
Activation date: 02/1975
Control tower: no
ARTCC: CHICAGO CENTER
FSS: KANKAKEE FLIGHT SERVICE STATION
NOTAMs facility: FDC (NOTAM-D service not available)
Attendance: UNATNDD
Wind indicator: lighted
Segmented circle: no
Beacon: white-green-yellow (heliport)
Operates sunset to sunrise.

Heliport Communications

WX AWOS-3 at DKB (1.8 nm SE): 119.075 (815-748-2350)
WX ASOS at ARR (16 nm SE): PHONE 630-466-4024
WX AWOS-3 at RPJ (16 nm W): 125.2 (815-562-2955)

Nearby radio navigation aids

VOR radial/distance  VOR name  Freq  Var
DPAr282/17.1DUPAGE VOR/DME108.4002E
RFDr126/26.5ROCKFORD VOR/DME110.8001E
JOTr322/30.7JOLIET VORTAC112.3002E
PLLr087/35.8POLO VOR/DME111.2003E
ORDr265/36.5CHICAGO O'HARE VOR/DME113.9002E
OBKr247/37.7NORTHBROOK VOR/DME113.0002W
JVLr152/39.7JANESVILLE VOR/DME114.3003E

 
NDB name  Hdg/Dist  Freq  Var  ID
OTTAWA008/36.426601EOIX --- .. -..-

Heliport Services

Runway Information

Helipad H1

Dimensions: 40 x 40 ft. / 12 x 12 m
Surface: concrete
Runway edge lights: PERI
RY H1 AND LEAD-IN LGTS.
Latitude: 41-57.639333N
Longitude: 088-43.306333W
Elevation: 860.0 ft.
Traffic pattern: leftleft

Heliport Ownership and Management from official FAA records

Ownership: Privately-owned
Owner: KISHWAUKEE HEALTH SYSTEM
P.O. BOX 707
DEKALB, IL 60115
Phone 815-756-1521
Manager: PAUL SPRINGER
P.O. BOX 707
DEKALB, IL 60115
Phone (815) 762-5126
EXTENSION 3489.

Instrument Procedures

There are no published instrument procedures at 0IL6.

Some nearby airports with instrument procedures:

KDKB - De Kalb Taylor Municipal Airport (2 nm SE)
KARR - Aurora Municipal Airport (16 nm SE)
KRPJ - Rochelle Municipal Airport-Koritz Field (16 nm W)
KDPA - DuPage Airport (21 nm E)
KRFD - Chicago/Rockford International Airport (22 nm NW)
 
Loc | Ops | Rwys | IFR | FBO | Links
Com | Nav | Svcs | Stats | Notes


 
Area around 0IL6 (Kishwaukee Hospital Heliport)
 
Road maps at: MapQuest Bing Google
 
Aerial photo
No photo
 
Sectional chart

 
Airport distance calculator
Flying to Kishwaukee Hospital Heliport? Find the distance to fly.

From to 0IL6

Sunrise and sunset
Times for 25-Jul-2017
 Local
(UTC-5)
 Zulu
(UTC)
Morning civil twilight05:1010:10
Sunrise05:4310:43
Sunset20:2001:20
Evening civil twilight20:5201:52

Current date and time
Zulu (UTC)  25-Jul-2017 14:07:09
Local (UTC-5)  25-Jul-2017 09:07:09
 
METAR
KDKB 
2nm SE 
251355Z AUTO 16010KT 10SM CLR 20/17 A3021 RMK AO2 T02040166
KARR 
16nm SE 
251352Z 16009KT 10SM FEW034 21/16 A3020 RMK AO2 SLP225 T02110161
KRPJ 
16nm W 
251355Z AUTO 17007KT 10SM CLR 20/16 A3020 RMK AO2 T01970161
TAF
KDPA 
21nm E 
251125Z 2512/2612 13004KT P6SM FEW250 FM251600 15009KT P6SM SCT250 FM260100 15005KT P6SM SCT250
KRFD 
22nm NW 
251125Z 2512/2612 14005KT P6SM FEW250 FM251500 16009KT P6SM SCT250 FM260000 15006KT P6SM SCT250
NOTAMs
Click for the latest NOTAMs
NOTAMs are issued by the DoD/FAA and will open in a separate window not controlled by AirNav.

 

 
 

Would you like to see your business listed on this page?

 If your business provides an interesting product or service to pilots, flight crews, aircraft, or users of the Kishwaukee Hospital Heliport, you should consider listing it here.  To start the listing process, click on the button below
 
Add a business
 

Other Pages about Kishwaukee Hospital Heliport

Update a link
 
Copyright © AirNav, LLC. All rights reserved. Privacy Policy  Contact